EDDTEDDE

Guest
Details From EDDT - Berlin Tegel
To EDDE - Erfurt
Flight Number -
Tags Generated
Created
Modified
Stats Distance 128 nm / 238 km
Max Altitude 0 ft / 0 m
Waypoints 2
Social Downloads 0
Likes 0
Share VATSIM

Download

Looking for another format? Having issues loading an existing format? Contact us
Advertisement - Login to hide

Notes

Generated

Route

EDDT EDDE

ID Type Via Altitude Latitude Longitude Leg Dist Tot Dist Heading (true) Name
O EDDT APT - 0 ft / 0 m 52.55668˚ 13.27499˚ - 0 nm - -
O EDDE APT - 0 ft / 0 m 50.98148˚ 10.93975˚ 128 nm 128 nm 223° / 222° -

Altitude Profile

Advertisement - Login to hide

EDDT

Details ICAO EDDT (TXL)
Name Berlin Tegel
Region Germany - Civil
Timezone Europe/Berlin (UTC+2.0)
Stats Elevation 122 ft / 37 m (AMSL)
Location 52.559100° 13.290188°
Runways 2
Magnetic Variation 3.811° E

METAR

EDDT 232020Z 04008KT 010V080 CAVOK 19/10 Q1023 NOSIG

Decode

TAF

TAF EDDT 231700Z 2318/2418 06007KT CAVOK TEMPO 2409/2415 08015G25KT

Decode

Departure Runways

ID Width Length Bearing (true) Bearing (mag) Surface Threshold Offset Overrun Length
08L 151 ft / 46 m 9,885 ft / 3,013 m 80.83° 77.02° Asphalt 0 ft / 0 m 226 ft / 69 m
08R 151 ft / 46 m 7,923 ft / 2,415 m 80.84° 77.03° Asphalt 341 ft / 104 m 207 ft / 63 m
26L 151 ft / 46 m 7,923 ft / 2,415 m 260.87° 257.06° Asphalt 722 ft / 220 m 157 ft / 48 m
26R 151 ft / 46 m 9,885 ft / 3,013 m 260.86° 257.05° Asphalt 0 ft / 0 m 223 ft / 68 m

EDDE

Details ICAO EDDE (ERF)
Name Erfurt
Region Germany - Civil
Timezone Europe/Berlin (UTC+2.0)
Stats Elevation 1,035 ft / 315 m (AMSL)
Location 50.979808° 10.958105°
Runways 1
Magnetic Variation 3.082° E

METAR

EDDE 232020Z 02007KT 9999 SCT060CB SCT066 18/13 Q1021

Decode

TAF

TAF EDDE 231700Z 2318/2418 07007KT 9999 FEW045 PROB30 TEMPO 2322/2408 TSRA BKN035CB PROB30 TEMPO 2413/2417 07015G25KT -TSRA SCT040CB

Decode

Destination Runways

ID Width Length Bearing (true) Bearing (mag) Surface Threshold Offset Overrun Length
10 164 ft / 50 m 8,523 ft / 2,598 m 98.24° 95.16° Asphalt 0 ft / 0 m 0 ft / 0 m
28 164 ft / 50 m 8,523 ft / 2,598 m 278.27° 275.19° Asphalt 656 ft / 200 m 0 ft / 0 m

Approach Navaids

Runway Type Ident Frequency Range Bearing (true) Bearing (mag) Slope Elevation
10 Localiser IERE 108.30 MHz 18 nm / 33 km 97.72° 94.64° - 1,016 ft / 310 m (AMSL)
10 Glidescope IERE 108.30 MHz 10 nm / 19 km 98.25° 95.17° 3.00° 1,035 ft / 315 m (AMSL)
28 Localiser IERW 109.90 MHz 18 nm / 33 km 277.68° 274.59° - 1,025 ft / 312 m (AMSL)
28 Glidescope IERW 109.90 MHz 10 nm / 19 km 278.25° 275.17° 3.00° 1,035 ft / 315 m (AMSL)

Popular Alternatives